Chester, South Dakota
Current Conditions -  °F | °C
As of 9:30 AM on Monday 22 Dec 2014 (Local Time) from KMDS Reporting Station
Moderate Fog Moderate Fog  
Wind Chill: 29°   Ceiling: 200
Heat Index: 36°   Visibility: 0mi
Dew Point: 36°   Wind: 8mph
Humidity: 100%   Direction: 200°SSW
Pressure: 29.43"   Gusts: NA
Location:  43.89°N, 96.93°W
Report Text: KMDS 221530Z AUTO 20007KT M1/4SM FG OVC002 02/02 A2943 RMK AO2
Loading
Personal Weather Stations






























Interactive Weather Map New forecast layout! Learn more

10-Day Weather Forecast

Advertisements
Track Severe Weather on mobile